createdAt,value
2022-11-27T00:01:16.298Z,102472.16
2022-11-27T00:03:43.349Z,102467.81
2022-11-27T00:06:13.493Z,102469.63
2022-11-27T00:08:40.271Z,102462.81
2022-11-27T00:11:08.449Z,102458.47
2022-11-27T00:13:35.211Z,102464.84
2022-11-27T00:16:04.217Z,102453.69
2022-11-27T00:18:30.933Z,102452.97
2022-11-27T00:21:02.927Z,102448.63
2022-11-27T00:23:29.738Z,102439.97
2022-11-27T00:25:56.465Z,102437.44
2022-11-27T00:28:23.070Z,102439.50
2022-11-27T00:30:51.256Z,102438.09
2022-11-27T00:33:19.299Z,102430.38
2022-11-27T00:35:45.964Z,102434.00
2022-11-27T00:38:12.656Z,102430.63
2022-11-27T00:40:39.469Z,102429.94
2022-11-27T00:43:06.300Z,102438.09
2022-11-27T00:45:35.515Z,102425.84
2022-11-27T00:48:02.261Z,102421.50
2022-11-27T00:50:32.164Z,102416.47
2022-11-27T00:52:59.169Z,102416.59
2022-11-27T00:55:26.245Z,102412.16
2022-11-27T00:57:53.030Z,102420.91
2022-11-27T01:00:20.360Z,102416.47
2022-11-27T01:02:49.969Z,102416.72
2022-11-27T01:05:16.909Z,102412.25
2022-11-27T01:07:45.280Z,102415.03
2022-11-27T01:10:12.383Z,102409.88
2022-11-27T01:12:39.312Z,102409.03
2022-11-27T01:15:06.870Z,102411.81
2022-11-27T01:17:33.536Z,102411.91
2022-11-27T01:20:00.675Z,102403.97
2022-11-27T01:22:27.383Z,102411.19
2022-11-27T01:24:55.469Z,102400.63
2022-11-27T01:27:22.111Z,102415.63
2022-11-27T01:29:48.824Z,102401.72
2022-11-27T01:32:15.526Z,102401.59
2022-11-27T01:34:43.300Z,102391.16
2022-11-27T01:37:10.114Z,102386.09
2022-11-27T01:39:36.966Z,102383.72
2022-11-27T01:42:05.441Z,102386.59
2022-11-27T01:44:51.053Z,102384.91
2022-11-27T01:47:27.881Z,102380.00
2022-11-27T01:49:59.606Z,102380.94
2022-11-27T01:52:32.517Z,102384.56
2022-11-27T01:55:06.034Z,102381.31
2022-11-27T01:57:41.091Z,102378.06
2022-11-27T02:00:12.970Z,102375.53
2022-11-27T02:02:39.956Z,102362.59
2022-11-27T02:05:07.398Z,102361.03
2022-11-27T02:07:34.729Z,102344.31
2022-11-27T02:10:02.171Z,102334.88
2022-11-27T02:12:39.685Z,102324.28
2022-11-27T02:15:14.118Z,102318.41
2022-11-27T02:17:47.590Z,102308.91
2022-11-27T02:20:27.709Z,102310.13
2022-11-27T02:23:11.052Z,102298.84
2022-11-27T02:25:49.453Z,102306.06
2022-11-27T02:28:40.787Z,102308.69
2022-11-27T02:31:16.250Z,102302.69
2022-11-27T02:33:47.206Z,102292.25
2022-11-27T02:36:22.628Z,102280.09
2022-11-27T02:38:53.822Z,102286.38
2022-11-27T02:41:25.706Z,102276.78
2022-11-27T02:43:54.641Z,102271.59
2022-11-27T02:46:23.509Z,102267.41
2022-11-27T02:48:54.787Z,102273.63
2022-11-27T02:51:26.819Z,102266.69
2022-11-27T02:53:56.617Z,102272.78
2022-11-27T02:56:28.102Z,102276.16
2022-11-27T02:58:58.524Z,102288.41
2022-11-27T03:01:30.821Z,102288.41
2022-11-27T03:04:00.421Z,102296.22
2022-11-27T03:06:30.951Z,102294.31
2022-11-27T03:09:02.722Z,102301.25
2022-11-27T03:11:32.589Z,102295.84
2022-11-27T03:14:04.769Z,102293.19
2022-11-27T03:16:58.049Z,102281.78
2022-11-27T03:19:30.793Z,102278.31
2022-11-27T03:21:59.870Z,102265.94
2022-11-27T03:24:27.688Z,102262.34
2022-11-27T03:26:54.622Z,102275.44
2022-11-27T03:29:25.553Z,102265.59
2022-11-27T03:31:54.069Z,102262.94
2022-11-27T03:34:20.710Z,102259.22
2022-11-27T03:36:52.732Z,102257.41
2022-11-27T03:39:20.552Z,102261.72
2022-11-27T03:41:55.502Z,102256.34
2022-11-27T03:44:30.333Z,102252.72
2022-11-27T03:47:10.768Z,102255.22
2022-11-27T03:49:52.977Z,102255.09
2022-11-27T03:52:30.221Z,102261.13
2022-11-27T03:55:05.149Z,102261.13
2022-11-27T03:57:37.777Z,102250.31
2022-11-27T04:00:08.234Z,102245.72
2022-11-27T04:02:43.382Z,102237.69
2022-11-27T04:05:10.505Z,102247.28
2022-11-27T04:07:37.538Z,102247.41
2022-11-27T04:10:06.100Z,102239.47
2022-11-27T04:12:32.805Z,102229.63
2022-11-27T04:14:59.473Z,102224.34
2022-11-27T04:17:26.184Z,102233.97
2022-11-27T04:19:54.243Z,102231.16
2022-11-27T04:22:21.013Z,102223.22
2022-11-27T04:24:47.727Z,102218.94
2022-11-27T04:27:14.437Z,102222.44
2022-11-27T04:29:41.107Z,102226.88
2022-11-27T04:32:07.869Z,102224.06
2022-11-27T04:34:34.653Z,102235.38
2022-11-27T04:37:03.510Z,102223.00
2022-11-27T04:39:30.971Z,102232.59
2022-11-27T04:41:57.680Z,102237.63
2022-11-27T04:44:24.390Z,102236.94
2022-11-27T04:46:51.103Z,102249.19
2022-11-27T04:49:17.970Z,102233.19
2022-11-27T04:51:45.925Z,102239.31
2022-11-27T04:54:13.937Z,102232.94
2022-11-27T04:56:40.619Z,102232.09
2022-11-27T04:59:07.254Z,102229.34
2022-11-27T05:01:33.912Z,102220.44
2022-11-27T05:04:00.700Z,102212.53
2022-11-27T05:06:27.416Z,102209.72
2022-11-27T05:09:00.026Z,102215.00
2022-11-27T05:11:28.910Z,102205.44
2022-11-27T05:14:15.090Z,102211.56
2022-11-27T05:16:42.473Z,102210.72
2022-11-27T05:19:11.056Z,102205.28
2022-11-27T05:21:38.712Z,102198.34
2022-11-27T05:24:06.320Z,102199.03
2022-11-27T05:26:34.811Z,102188.47
2022-11-27T05:29:02.805Z,102176.34
2022-11-27T05:31:29.590Z,102171.06
2022-11-27T05:33:56.355Z,102170.22
2022-11-27T05:36:23.235Z,102166.88
2022-11-27T05:38:49.861Z,102168.56
2022-11-27T05:41:16.827Z,102168.56
2022-11-27T05:43:45.066Z,102172.03
2022-11-27T05:46:14.795Z,102171.75
2022-11-27T05:48:41.748Z,102168.28
2022-11-27T05:51:08.638Z,102160.22
2022-11-27T05:53:35.492Z,102161.06
2022-11-27T05:56:03.430Z,102162.63
2022-11-27T05:58:30.362Z,102158.19
2022-11-27T06:01:00.261Z,102173.09
2022-11-27T06:03:27.315Z,102161.50
2022-11-27T06:05:55.854Z,102165.16
2022-11-27T06:08:22.789Z,102160.81
2022-11-27T06:10:50.131Z,102157.22
2022-11-27T06:13:17.118Z,102149.28
2022-11-27T06:15:44.014Z,102144.97
2022-11-27T06:18:12.992Z,102158.03
2022-11-27T06:20:43.703Z,102148.19
2022-11-27T06:23:10.883Z,102146.38
2022-11-27T06:25:37.504Z,102142.88
2022-11-27T06:28:04.464Z,102126.06
2022-11-27T06:30:31.137Z,102138.44
2022-11-27T06:32:57.826Z,102129.53
2022-11-27T06:35:26.078Z,102120.66
2022-11-27T06:37:52.820Z,102119.81
2022-11-27T06:40:19.452Z,102122.59
2022-11-27T06:42:46.154Z,102118.13
2022-11-27T06:45:14.124Z,102123.28
2022-11-27T06:47:40.798Z,102110.09
2022-11-27T06:50:08.299Z,102117.16
2022-11-27T06:52:40.388Z,102129.31
2022-11-27T06:55:08.207Z,102116.09
2022-11-27T06:57:34.899Z,102108.97
2022-11-27T07:00:02.122Z,102114.97
2022-11-27T07:02:29.025Z,102120.13
2022-11-27T07:04:55.742Z,102118.19
2022-11-27T07:07:22.548Z,102108.47
2022-11-27T07:09:50.606Z,102115.56
2022-11-27T07:12:17.280Z,102104.16
2022-11-27T07:14:43.909Z,102110.28
2022-11-27T07:17:10.530Z,102102.19
2022-11-27T07:19:37.228Z,102091.75
2022-11-27T07:22:03.882Z,102096.91
2022-11-27T07:24:30.632Z,102095.09
2022-11-27T07:26:58.659Z,102085.34
2022-11-27T07:29:25.480Z,102086.31
2022-11-27T07:31:52.342Z,102077.44
2022-11-27T07:34:21.697Z,102078.25
2022-11-27T07:36:48.735Z,102081.75
2022-11-27T07:39:25.271Z,102085.22
2022-11-27T07:42:16.753Z,102075.50
2022-11-27T07:44:48.972Z,102083.44
2022-11-27T07:47:15.716Z,102072.00
2022-11-27T07:49:42.381Z,102070.22
2022-11-27T07:52:09.059Z,102073.69
2022-11-27T07:54:36.191Z,102066.47
2022-11-27T07:57:04.441Z,102076.91
2022-11-27T07:59:31.096Z,102065.34
2022-11-27T08:01:57.762Z,102055.63
2022-11-27T08:04:24.483Z,102050.19
2022-11-27T08:06:51.360Z,102048.66
2022-11-27T08:09:18.049Z,102038.06
2022-11-27T08:11:44.996Z,102043.34
2022-11-27T08:14:14.230Z,102038.06
2022-11-27T08:16:41.671Z,102035.44
2022-11-27T08:19:09.770Z,102044.34
2022-11-27T08:21:36.417Z,102047.69
2022-11-27T08:24:03.301Z,102048.53
2022-11-27T08:26:30.200Z,102044.91
2022-11-27T08:28:58.095Z,102038.06
2022-11-27T08:31:26.391Z,102034.75
2022-11-27T08:33:53.083Z,102041.72
2022-11-27T08:36:20.041Z,102032.78
2022-11-27T08:38:47.125Z,102029.47
2022-11-27T08:41:14.230Z,102026.66
2022-11-27T08:43:40.855Z,102028.50
2022-11-27T08:46:08.074Z,102026.53
2022-11-27T08:48:36.460Z,102030.00
2022-11-27T08:51:06.414Z,102025.69
2022-11-27T08:53:33.173Z,102026.53
2022-11-27T08:56:05.739Z,102016.06
2022-11-27T08:58:32.518Z,102016.06
2022-11-27T09:00:59.333Z,102002.06
2022-11-27T09:03:26.036Z,102005.50
2022-11-27T09:05:54.444Z,102008.84
2022-11-27T09:08:21.463Z,102001.88
2022-11-27T09:10:48.253Z,102006.34
2022-11-27T09:13:14.916Z,102005.50
2022-11-27T09:15:41.710Z,102011.63
2022-11-27T09:18:08.585Z,102018.72
2022-11-27T09:20:35.453Z,102009.69
2022-11-27T09:23:03.741Z,102012.34
2022-11-27T09:25:30.421Z,102014.03
2022-11-27T09:27:57.512Z,102007.75
2022-11-27T09:30:24.357Z,102006.09
2022-11-27T09:32:52.502Z,102005.13
2022-11-27T09:35:19.237Z,102000.81
2022-11-27T09:37:45.933Z,102003.19
2022-11-27T09:40:17.643Z,102004.72
2022-11-27T09:42:50.413Z,102010.84
2022-11-27T09:45:18.282Z,102007.22
2022-11-27T09:47:51.436Z,102010.72
2022-11-27T09:50:24.337Z,102013.22
2022-11-27T09:52:54.747Z,102000.56
2022-11-27T09:55:25.148Z,102000.56
2022-11-27T09:58:02.153Z,102000.44
2022-11-27T10:00:28.987Z,102000.44
2022-11-27T10:02:55.800Z,101996.94
2022-11-27T10:05:25.278Z,101990.69
2022-11-27T10:08:09.333Z,101991.41
2022-11-27T10:10:46.653Z,101984.97
2022-11-27T10:13:33.077Z,101984.00
2022-11-27T10:16:07.931Z,101976.66
2022-11-27T10:18:40.508Z,101979.97
2022-11-27T10:21:13.872Z,101968.56
2022-11-27T10:23:48.360Z,101969.56
2022-11-27T10:26:19.773Z,101964.09
2022-11-27T10:28:55.627Z,101955.06
2022-11-27T10:31:34.953Z,101957.59
2022-11-27T10:34:04.471Z,101942.56
2022-11-27T10:36:36.188Z,101944.06
2022-11-27T10:39:06.694Z,101941.28
2022-11-27T10:41:49.130Z,101939.34
2022-11-27T10:44:30.178Z,101926.97
2022-11-27T10:47:01.635Z,101928.63
2022-11-27T10:49:28.386Z,101916.25
2022-11-27T10:51:55.579Z,101916.25
2022-11-27T10:54:26.634Z,101907.31
2022-11-27T10:57:08.057Z,101906.34
2022-11-27T10:59:39.639Z,101902.59
2022-11-27T11:02:09.299Z,101899.94
2022-11-27T11:04:48.430Z,101893.69
2022-11-27T11:07:25.922Z,101890.91
2022-11-27T11:09:53.828Z,101897.84
2022-11-27T11:12:23.675Z,101896.03
2022-11-27T11:14:51.968Z,101887.97
2022-11-27T11:17:24.421Z,101886.97
2022-11-27T11:19:51.495Z,101883.38
2022-11-27T11:22:18.572Z,101884.75
2022-11-27T11:24:50.133Z,101872.34
2022-11-27T11:27:21.402Z,101865.25
2022-11-27T11:29:52.859Z,101860.66
2022-11-27T11:32:24.972Z,101857.03
2022-11-27T11:35:00.538Z,101849.09
2022-11-27T11:37:31.522Z,101844.34
2022-11-27T11:40:04.052Z,101840.19
2022-11-27T11:42:33.764Z,101843.50
2022-11-27T11:45:06.191Z,101841.56
2022-11-27T11:47:33.361Z,101840.44
2022-11-27T11:50:01.260Z,101841.13
2022-11-27T11:52:59.541Z,101835.69
2022-11-27T11:55:32.993Z,101839.19
2022-11-27T11:58:16.503Z,101842.53
2022-11-27T12:01:18.985Z,101835.41
2022-11-27T12:03:43.541Z,101827.47
2022-11-27T12:06:24.584Z,101817.88
2022-11-27T12:09:04.180Z,101822.19
2022-11-27T12:11:39.416Z,101813.41
2022-11-27T12:14:18.348Z,101806.44
2022-11-27T12:17:02.589Z,101802.81
2022-11-27T12:19:45.507Z,101789.44
2022-11-27T12:22:21.784Z,101785.66
2022-11-27T12:24:55.776Z,101774.94
2022-11-27T12:27:32.433Z,101764.34
2022-11-27T12:30:16.786Z,101759.75
2022-11-27T12:33:07.233Z,101751.78
2022-11-27T12:35:39.904Z,101740.22
2022-11-27T12:38:19.902Z,101733.94
2022-11-27T12:41:11.125Z,101730.16
2022-11-27T12:43:41.189Z,101716.94
2022-11-27T12:46:15.291Z,101715.81
2022-11-27T12:48:47.584Z,101714.00
2022-11-27T12:51:21.469Z,101704.91
2022-11-27T12:53:55.091Z,101711.88
2022-11-27T12:56:26.960Z,101713.56
2022-11-27T12:58:57.322Z,101707.28
2022-11-27T13:01:28.946Z,101702.97
2022-11-27T13:04:11.242Z,101701.97
2022-11-27T13:06:48.744Z,101699.47
2022-11-27T13:09:24.743Z,101699.34
2022-11-27T13:11:51.732Z,101705.31
2022-11-27T13:14:20.810Z,101713.94
2022-11-27T13:16:50.614Z,101704.03
2022-11-27T13:19:25.459Z,101700.56
2022-11-27T13:21:56.663Z,101694.41
2022-11-27T13:24:25.188Z,101697.75
2022-11-27T13:27:03.627Z,101686.34
2022-11-27T13:29:36.385Z,101677.56
2022-11-27T13:32:06.329Z,101671.28
2022-11-27T13:34:44.049Z,101681.88
2022-11-27T13:37:26.318Z,101669.59
2022-11-27T13:40:00.119Z,101649.41
2022-11-27T13:42:28.705Z,101651.06
2022-11-27T13:44:57.344Z,101646.59
2022-11-27T13:47:27.386Z,101642.16
2022-11-27T13:50:04.261Z,101636.84
2022-11-27T13:52:31.559Z,101650.94
2022-11-27T13:55:00.403Z,101651.91
2022-11-27T13:57:28.687Z,101641.31
2022-11-27T13:59:58.752Z,101636.00
2022-11-27T14:02:26.020Z,101622.78
2022-11-27T14:04:56.429Z,101623.91
2022-11-27T14:07:36.471Z,101617.63
2022-11-27T14:10:10.018Z,101613.16
2022-11-27T14:12:37.137Z,101606.06
2022-11-27T14:15:08.183Z,101617.47
2022-11-27T14:17:39.542Z,101616.50
2022-11-27T14:20:21.210Z,101618.16
2022-11-27T14:25:38.172Z,101601.13
2022-11-27T14:28:14.536Z,101601.13
2022-11-27T14:30:46.067Z,101592.19
2022-11-27T14:33:31.271Z,101587.88
2022-11-27T14:35:59.829Z,101595.84
2022-11-27T14:38:32.900Z,101594.00
2022-11-27T14:41:15.151Z,101592.19
2022-11-27T14:43:41.915Z,101584.13
2022-11-27T14:46:15.074Z,101584.13
2022-11-27T14:48:45.068Z,101575.34
2022-11-27T14:51:16.428Z,101580.47
2022-11-27T14:53:46.262Z,101580.47
2022-11-27T14:56:14.308Z,101580.38
2022-11-27T14:58:48.323Z,101570.44
2022-11-27T15:01:25.135Z,101561.66
2022-11-27T15:03:57.322Z,101557.19
2022-11-27T15:06:27.655Z,101549.25
2022-11-27T15:09:23.633Z,101554.53
2022-11-27T15:11:56.306Z,101553.56
2022-11-27T15:14:25.540Z,101546.06
2022-11-27T15:16:53.837Z,101537.28
2022-11-27T15:19:30.917Z,101531.00
2022-11-27T15:21:58.249Z,101537.28
2022-11-27T15:24:32.017Z,101531.13
2022-11-27T15:27:20.444Z,101526.69
2022-11-27T15:30:01.742Z,101531.13
2022-11-27T15:32:42.644Z,101525.84
2022-11-27T15:35:14.340Z,101522.50
2022-11-27T15:37:41.708Z,101532.13
2022-11-27T15:40:26.948Z,101527.66
2022-11-27T15:42:53.609Z,101527.94
2022-11-27T15:45:20.276Z,101527.44
2022-11-27T15:47:47.013Z,101530.91
2022-11-27T15:50:15.216Z,101515.88
2022-11-27T15:52:42.032Z,101506.09
2022-11-27T15:55:15.824Z,101498.16
2022-11-27T15:57:43.957Z,101489.38
2022-11-27T16:00:13.148Z,101483.25
2022-11-27T16:02:40.391Z,101478.78
2022-11-27T16:05:08.620Z,101478.78
2022-11-27T16:07:35.644Z,101468.34
2022-11-27T16:10:02.437Z,101466.69
2022-11-27T16:12:29.177Z,101471.97
2022-11-27T16:14:57.266Z,101471.13
2022-11-27T16:17:24.192Z,101470.16
2022-11-27T16:19:51.283Z,101475.44
2022-11-27T16:22:18.878Z,101470.16
2022-11-27T16:24:45.671Z,101465.53
2022-11-27T16:27:12.416Z,101469.03
2022-11-27T16:29:39.217Z,101470.84
2022-11-27T16:32:07.369Z,101462.91
2022-11-27T16:34:34.180Z,101460.09
2022-11-27T16:37:01.049Z,101460.94
2022-11-27T16:39:27.839Z,101459.09
2022-11-27T16:41:54.743Z,101458.28
2022-11-27T16:44:21.453Z,101447.84
2022-11-27T16:46:48.166Z,101446.16
2022-11-27T16:49:16.335Z,101443.38
2022-11-27T16:51:43.861Z,101437.09
2022-11-27T16:54:12.561Z,101435.25
2022-11-27T16:56:39.486Z,101428.16
2022-11-27T16:59:08.768Z,101425.34
2022-11-27T17:01:36.221Z,101417.41
2022-11-27T17:04:04.748Z,101415.72
2022-11-27T17:06:33.833Z,101407.13
2022-11-27T17:09:01.832Z,101397.53
2022-11-27T17:11:32.216Z,101396.53
2022-11-27T17:14:00.275Z,101392.72
2022-11-27T17:16:27.774Z,101393.72
2022-11-27T17:18:54.556Z,101391.06
2022-11-27T17:21:24.445Z,101379.50
2022-11-27T17:23:55.110Z,101371.41
2022-11-27T17:26:24.091Z,101376.69
2022-11-27T17:28:51.662Z,101369.72
2022-11-27T17:31:23.602Z,101365.25
2022-11-27T17:33:52.572Z,101365.25
2022-11-27T17:36:19.737Z,101366.09
2022-11-27T17:38:46.523Z,101366.09
2022-11-27T17:41:15.069Z,101365.13
2022-11-27T17:43:42.225Z,101366.78
2022-11-27T17:46:11.869Z,101359.81
2022-11-27T17:48:38.841Z,101365.94
2022-11-27T17:51:06.650Z,101362.47
2022-11-27T17:53:33.732Z,101371.13
2022-11-27T17:56:02.937Z,101364.13
2022-11-27T17:58:31.280Z,101359.66
2022-11-27T18:00:58.598Z,101356.06
2022-11-27T18:03:25.556Z,101356.06
2022-11-27T18:05:52.421Z,101353.41
2022-11-27T18:08:19.142Z,101362.16
2022-11-27T18:10:46.291Z,101353.41
2022-11-27T18:13:13.058Z,101356.88
2022-11-27T18:15:43.206Z,101355.25
2022-11-27T18:18:10.182Z,101345.47
2022-11-27T18:20:36.961Z,101345.47
2022-11-27T18:23:04.391Z,101341.13
2022-11-27T18:25:31.592Z,101329.69
2022-11-27T18:27:58.724Z,101331.53
2022-11-27T18:30:25.615Z,101331.53
2022-11-27T18:32:53.702Z,101316.47
2022-11-27T18:35:24.006Z,101316.47
2022-11-27T18:37:51.260Z,101319.09
2022-11-27T18:40:18.349Z,101312.00
2022-11-27T18:42:45.080Z,101314.50
2022-11-27T18:45:31.310Z,101305.75
2022-11-27T18:48:00.016Z,101304.91
2022-11-27T18:50:29.656Z,101298.91
2022-11-27T18:52:56.672Z,101294.59
2022-11-27T18:55:25.757Z,101285.81
2022-11-27T18:57:53.231Z,101284.97
2022-11-27T19:00:22.210Z,101277.03
2022-11-27T19:02:49.001Z,101287.78
2022-11-27T19:05:17.116Z,101282.66
2022-11-27T19:07:44.130Z,101283.50
2022-11-27T19:10:11.541Z,101269.44
2022-11-27T19:12:38.175Z,101267.59
2022-11-27T19:15:05.748Z,101262.31
2022-11-27T19:17:32.706Z,101264.13
2022-11-27T19:19:59.783Z,101265.13
2022-11-27T19:22:28.184Z,101260.66
2022-11-27T19:24:55.143Z,101257.03
2022-11-27T19:27:21.924Z,101254.53
2022-11-27T19:29:49.007Z,101259.66
2022-11-27T19:32:15.718Z,101253.34
2022-11-27T19:34:42.601Z,101250.06
2022-11-27T19:37:10.095Z,101241.28
2022-11-27T19:39:38.243Z,101246.72
2022-11-27T19:42:05.157Z,101237.94
2022-11-27T19:44:31.862Z,101239.78
2022-11-27T19:46:58.866Z,101251.19
2022-11-27T19:49:26.299Z,101244.22
2022-11-27T19:51:58.947Z,101240.91
2022-11-27T19:54:25.614Z,101236.63
2022-11-27T19:56:53.981Z,101227.00
2022-11-27T19:59:25.555Z,101224.38
2022-11-27T20:01:52.619Z,101223.53
2022-11-27T20:04:19.329Z,101218.25
2022-11-27T20:06:46.160Z,101214.91
2022-11-27T20:09:14.076Z,101207.66
2022-11-27T20:11:40.798Z,101205.00
2022-11-27T20:14:08.843Z,101198.72
2022-11-27T20:16:37.714Z,101186.47
2022-11-27T20:19:06.364Z,101183.00
2022-11-27T20:21:33.543Z,101179.66
2022-11-27T20:24:01.692Z,101174.38
2022-11-27T20:26:30.527Z,101174.38
2022-11-27T20:28:58.217Z,101161.13
2022-11-27T20:31:28.479Z,101161.13
2022-11-27T20:34:02.283Z,101160.44
2022-11-27T20:36:30.533Z,101155.34
2022-11-27T20:38:59.272Z,101161.63
2022-11-27T20:41:27.085Z,101154.66
2022-11-27T20:43:55.388Z,101146.72
2022-11-27T20:46:22.135Z,101140.44
2022-11-27T20:48:51.749Z,101143.25
2022-11-27T20:51:21.172Z,101131.81
2022-11-27T20:53:48.761Z,101130.00
2022-11-27T20:56:17.561Z,101136.13
2022-11-27T20:58:45.380Z,101134.47
2022-11-27T21:01:17.012Z,101128.34
2022-11-27T21:03:44.116Z,101134.63
2022-11-27T21:06:12.236Z,101121.38
2022-11-27T21:08:38.941Z,101124.03
2022-11-27T21:11:10.286Z,101122.38
2022-11-27T21:13:37.329Z,101116.28
2022-11-27T21:16:06.877Z,101118.09
2022-11-27T21:18:33.850Z,101114.44
2022-11-27T21:21:05.519Z,101117.06
2022-11-27T21:23:33.717Z,101114.28
2022-11-27T21:26:00.433Z,101107.16
2022-11-27T21:28:27.237Z,101107.31
2022-11-27T21:30:55.861Z,101098.25
2022-11-27T21:33:22.467Z,101089.47
2022-11-27T21:35:55.886Z,101087.66
2022-11-27T21:38:24.004Z,101089.47
2022-11-27T21:40:52.232Z,101081.53
2022-11-27T21:43:18.933Z,101071.09
2022-11-27T21:45:45.637Z,101068.44
2022-11-27T21:48:14.301Z,101064.97
2022-11-27T21:50:41.294Z,101068.63
2022-11-27T21:53:08.061Z,101063.34
2022-11-27T21:55:39.445Z,101052.56
2022-11-27T21:58:07.805Z,101066.78
2022-11-27T22:00:34.891Z,101058.19
2022-11-27T22:03:01.864Z,101057.22
2022-11-27T22:05:28.706Z,101052.91
2022-11-27T22:07:55.385Z,101047.59
2022-11-27T22:10:22.159Z,101045.78
2022-11-27T22:12:48.811Z,101035.34
2022-11-27T22:15:16.994Z,101036.19
2022-11-27T22:17:43.652Z,101038.84
2022-11-27T22:20:11.379Z,101033.69
2022-11-27T22:22:38.045Z,101032.88
2022-11-27T22:25:05.772Z,101015.16
2022-11-27T22:27:32.529Z,101023.94
2022-11-27T22:29:59.421Z,101014.50
2022-11-27T22:32:27.458Z,101021.44
2022-11-27T22:34:54.134Z,101006.56
2022-11-27T22:37:20.804Z,100993.31
2022-11-27T22:39:52.848Z,100992.34
2022-11-27T22:42:19.455Z,100994.81
2022-11-27T22:44:46.350Z,100989.38
2022-11-27T22:47:13.008Z,100983.25
2022-11-27T22:49:41.066Z,100976.13
2022-11-27T22:52:07.763Z,100988.38
2022-11-27T22:54:34.710Z,100991.88
2022-11-27T22:57:01.440Z,100979.63
2022-11-27T22:59:33.163Z,100970.50
2022-11-27T23:02:00.765Z,100980.25
2022-11-27T23:04:27.510Z,100976.47
2022-11-27T23:06:55.616Z,100971.16
2022-11-27T23:09:22.582Z,100969.34
2022-11-27T23:11:49.434Z,100965.88
2022-11-27T23:14:16.559Z,100962.41
2022-11-27T23:16:43.530Z,100958.91
2022-11-27T23:19:10.812Z,100973.81
2022-11-27T23:21:44.054Z,100949.81
2022-11-27T23:24:15.280Z,100960.25
2022-11-27T23:26:42.345Z,100957.63
2022-11-27T23:29:09.347Z,100951.50
2022-11-27T23:31:36.514Z,100937.59
2022-11-27T23:34:05.478Z,100939.41
2022-11-27T23:36:33.343Z,100942.03
2022-11-27T23:39:01.023Z,100936.59
2022-11-27T23:41:29.745Z,100929.47
2022-11-27T23:44:15.159Z,100933.78
2022-11-27T23:46:42.641Z,100931.13
2022-11-27T23:49:09.347Z,100930.94
2022-11-27T23:51:36.511Z,100927.31
2022-11-27T23:54:07.771Z,100926.16
2022-11-27T23:56:37.288Z,100928.81
2022-11-27T23:59:04.273Z,100913.91
